Terminal Aerodrome Forecast
Issued by NWS

Home | Current Version | Previous Version | Text Only | Print | Product List | Glossary On
Versions: 1 2 3 4 5 6 7 8 9 10 11 12
000
FTUS42 KMLB 250537
TAFTIX
TAF
KTIX 250537Z 2506/2606 08008KT P6SM FEW020 SCT250
     FM251500 05006KT P6SM SCT025 SCT250
     FM251900 08011KT P6SM VCTS BKN030CB
     FM252100 09010KT P6SM SCT030 BKN250
     FM260000 09006KT P6SM FEW050 BKN250
      AMD NOT SKED TIL 251100=

USA.gov is the U.S. government's official web portal to all federal, state and local government web resources and services.